Airfield :
LOGIN :

Register | Disclaimer

   EN    FR    IT 

 










Legend :    VFR   Marginal VFR   IFR   Intensive IFR   Very Intensive IFR
Visi :
Ceiling :
>= 8 km
>= 3000ft
5 to 8 km
1000 to 3000 ft
1500m to 5 km
500 to 1000 ft
800 to 1500m
200 to 500 ft
< 800m
< 200 ft
Symbols :   Thunderstorms  Fog  Heavy snow  Heavy precipitations  Wind > 20 kt
SIGMETs :     Misc.  Thunderstorms  Icing  Turbulence  Mountain Waves  Volcanic Ashes







- Airport Elevation : 1470 ft


LSMD - Dubendorf Military

CURRENT METAR :
  • 191150Z 04008KT 340V090 CAVOK 17/07 Q1025 RMK BLU

EXPIRED METARs :
  • 191120Z 09010KT 050V130 CAVOK 16/06 Q1025 RMK BLU
  • 191050Z 08011KT 010V120 CAVOK 15/05 Q1025 RMK BLU
  • 191020Z AUTO 06007KT 020V100 9999NDV NCD 15/06 Q1026 RMK
  • 190950Z 06008KT 010V100 CAVOK 14/06 Q1026 RMK BLU
  • 190920Z 08010KT 360V110 CAVOK 13/05 Q1026 RMK BLU

Expired Forecast.
No reported NOTAMs for that airfield.



MET'MAP, your aeronautical weather chart ! - Copyright ORBIFLY December 2007 - Disclaimer

ORBIFLY MET'MAP TEAM :

Programming & Development : Alexandra Zaïnal
Concept & Development : Baudouin d'Aumeries
Co-Development & Prog : Marc-Olivier Méhu
Technical & hardware support : Manuel Goepfert

Contact : metmap@orbifly.com




SOURCES & CREDITS :

   NOAA